• Join FlightAware (Why Join?)
  • Login
  • US Flag 
11:09AM EDT


 

Airport Tracker/Info


-or-


 

Live Flight TrackerFlight Track Log ✈ MRA604 ✈ 25-May-2012 ✈ KGLR - KLAN

Flight Track Log - Related Links

Times and Time Zones

All times are in EDT time to prevent confusion due to time zone crossing. See the MRA604 flight status page for this flight to view local times or setup timezone preferences in your user account.

Time Position Orientation Groundspeed Altitude Reporting Facility
EDT Latitude Longitude Course Direction KTS MPH feet Rate Location/Type
07:55PM 44.8836 -84.7267 180° South 158 182 5,100  Level Minneapolis Center
07:59PM 44.7189 -84.7286 175° South 141 162 8,500 780 Climbing Minneapolis Center
08:00PM 44.6767 -84.7233 175° South 141 162 9,000 240 Climbing Minneapolis Center
08:01PM 44.6322 -84.7183 179° South 149 171 9,000  Level Minneapolis Center
08:02PM 44.5842 -84.7169 181° South 166 191 9,100  Climbing Minneapolis Center
08:03PM 44.5361 -84.7183 179° South 171 197 9,000 -60 Descending Minneapolis Center
08:04PM 44.4881 -84.7169 181° South 171 197 9,000  Level Minneapolis Center
08:05PM 44.4442 -84.7178 184° South 171 197 9,100  Climbing Minneapolis Center
08:06PM 44.3944 -84.7225 176° South 176 203 9,100  Level Minneapolis Center
08:07PM 44.3481 -84.7178 181° South 176 203 9,100  Level Minneapolis Center
08:08PM 44.3022 -84.7189 181° South 176 203 9,100  Level Minneapolis Center
08:09PM 44.2542 -84.7203 176° South 176 203 9,100  Level Minneapolis Center
08:16PM 43.9835 -84.6943 176° South  Level FlightAware Approximate
08:17PM 43.9460 -84.6907 215° Southwest  Level FlightAware Approximate
08:18PM 43.9184 -84.7175 175° South  Level FlightAware Approximate
08:19PM 43.8809 -84.7129 175° South  Level FlightAware Approximate
08:20PM 43.8435 -84.7083 175° South  Level FlightAware Approximate
08:21PM 43.8060 -84.7038 175° South  Level FlightAware Approximate
08:22PM 43.7686 -84.6992 175° South  Level FlightAware Approximate
08:23PM 43.7311 -84.6946 175° South  Level FlightAware Approximate
08:24PM 43.6937 -84.6901 175° South  Level FlightAware Approximate